Time;durP1;ratioP1;P1;durP2;ratioP2;P2;SDS_P1;SDS_P2;PMS_P1;PMS_P2;Temp;Humidity;BMP_temperature;BMP_pressure;BME280_temperature;BME280_humidity;BME280_pressure;Samples;Min_cycle;Max_cycle;Signal;HPM_P1;HPM_P2
2022/06/09 00:01:04;;;;;;;3.88;2.95;;;;;;;15.65;78.73;98058.72;4975341;28;20500;-80
2022/06/09 00:03:56;;;;;;;4.90;3.38;;;;;;;15.39;79.16;98040.66;5004607;28;20034;-80
2022/06/09 00:06:27;;;;;;;5.60;3.78;;;;;;;15.35;79.26;98053.13;5005096;28;20155;-80
2022/06/09 00:08:53;;;;;;;4.68;4.07;;;;;;;14.94;81.67;98056.53;5006076;28;20038;-80
2022/06/09 00:11:22;;;;;;;4.65;3.20;;;;;;;15.13;81.32;98069.13;5006435;28;20491;-79
2022/06/09 00:13:49;;;;;;;4.93;4.43;;;;;;;15.21;80.91;98050.41;5007323;28;20398;-80
2022/06/09 00:16:14;;;;;;;7.00;5.07;;;;;;;14.99;82.14;98064.53;5007253;28;20021;-80
2022/06/09 00:18:40;;;;;;;7.30;5.03;;;;;;;14.46;84.34;98057.88;5003092;28;20048;-80
2022/06/09 00:21:06;;;;;;;6.35;5.47;;;;;;;14.21;86.53;98052.88;5003527;28;20041;-80
2022/06/09 00:23:31;;;;;;;7.57;6.20;;;;;;;14.32;85.04;98061.59;5005120;28;20041;-80
2022/06/09 00:25:57;;;;;;;7.60;4.60;;;;;;;14.38;83.99;98060.44;5007033;28;20098;-80
2022/06/09 00:28:22;;;;;;;4.88;4.43;;;;;;;14.66;83.74;98072.88;4979885;28;20053;-79
2022/06/09 00:30:49;;;;;;;9.43;6.72;;;;;;;13.77;87.06;98071.19;5006867;28;20065;-80
2022/06/09 00:33:14;;;;;;;4.55;3.78;;;;;;;14.41;84.80;98068.72;5007823;28;20111;-80
2022/06/09 00:35:40;;;;;;;3.88;3.47;;;;;;;15.11;80.83;98061.38;4988759;28;20505;-80
2022/06/09 00:38:06;;;;;;;8.07;5.40;;;;;;;14.66;83.44;98073.69;5007141;28;20030;-79
2022/06/09 00:40:32;;;;;;;4.13;3.47;;;;;;;14.63;83.40;98055.47;5005117;28;20053;-80
2022/06/09 00:43:02;;;;;;;6.03;5.28;;;;;;;14.86;83.05;98078.72;5006572;28;20029;-80
2022/06/09 00:45:29;;;;;;;6.78;4.28;;;;;;;14.98;82.54;98070.97;5018825;28;20034;-80
2022/06/09 00:48:00;;;;;;;7.95;5.85;;;;;;;14.62;84.16;98072.69;5004338;28;20052;-80
2022/06/09 00:50:27;;;;;;;12.93;6.20;;;;;;;14.87;82.70;98076.84;5006304;28;20049;-80
2022/06/09 00:53:00;;;;;;;5.75;4.65;;;;;;;15.71;79.01;98070.97;5004006;28;20038;-80
2022/06/09 00:55:30;;;;;;;6.18;5.30;;;;;;;14.95;82.16;98074.28;5005154;28;20032;-80
2022/06/09 00:58:02;;;;;;;8.35;6.03;;;;;;;14.87;82.59;98069.56;5002793;28;20022;-80
2022/06/09 01:00:34;;;;;;;5.47;4.78;;;;;;;15.03;81.42;98075.47;5001720;28;20026;-80
2022/06/09 01:03:02;;;;;;;4.25;3.60;;;;;;;15.56;79.00;98068.59;5004380;28;20038;-80
2022/06/09 01:05:31;;;;;;;8.60;5.80;;;;;;;15.30;80.74;98077.41;5013532;28;20071;-80
2022/06/09 01:08:00;;;;;;;4.05;3.70;;;;;;;15.57;78.79;98070.16;5013042;28;20033;-80
2022/06/09 01:10:29;;;;;;;4.88;4.38;;;;;;;15.38;79.79;98085.56;5009644;28;20519;-80
2022/06/09 01:12:55;;;;;;;7.68;4.35;;;;;;;15.54;79.03;98088.81;4981775;28;20038;-80
2022/06/09 01:15:24;;;;;;;6.22;3.92;;;;;;;15.74;78.32;98088.41;5013158;28;20107;-80
2022/06/09 01:17:59;;;;;;;5.03;4.07;;;;;;;15.91;76.92;98079.72;5015463;28;20121;-80
2022/06/09 01:20:40;;;;;;;4.23;3.83;;;;;;;15.66;78.39;98099.88;5013114;28;20029;-80
2022/06/09 01:23:26;;;;;;;9.43;5.97;;;;;;;14.73;82.62;98110.91;5013770;28;20281;-80
2022/06/09 01:25:51;;;;;;;6.60;5.57;;;;;;;14.18;85.64;98107.13;5025828;28;20128;-80
2022/06/09 01:28:35;;;;;;;9.10;6.30;;;;;;;14.02;86.68;98113.81;5012397;28;20112;-80
2022/06/09 01:31:10;;;;;;;9.00;6.72;;;;;;;13.98;86.63;98110.88;5011313;28;20088;-80
2022/06/09 01:33:49;;;;;;;12.43;7.32;;;;;;;13.65;88.76;98101.09;5012553;28;20041;-80
2022/06/09 01:36:21;;;;;;;5.68;4.38;;;;;;;14.25;85.24;98119.13;5012745;28;20034;-80
2022/06/09 01:38:50;;;;;;;7.50;5.72;;;;;;;14.42;84.76;98124.00;5011401;28;20077;-80
2022/06/09 01:41:16;;;;;;;4.63;4.13;;;;;;;14.55;84.87;98117.91;5011952;28;20049;-80
2022/06/09 01:43:44;;;;;;;9.23;7.30;;;;;;;14.06;86.48;98102.22;5005099;28;20493;-80
2022/06/09 01:46:19;;;;;;;4.90;4.40;;;;;;;14.55;83.45;98101.78;5011416;28;20043;-80
2022/06/09 01:48:44;;;;;;;12.27;7.63;;;;;;;14.70;83.95;98125.72;5009052;28;20068;-80
2022/06/09 01:51:14;;;;;;;5.40;4.05;;;;;;;15.01;81.88;98124.16;5023599;28;20030;-80
2022/06/09 01:53:54;;;;;;;4.85;4.28;;;;;;;15.30;79.60;98102.41;5011622;28;20042;-80
2022/06/09 01:56:40;;;;;;;9.38;6.30;;;;;;;15.32;80.28;98116.34;5024266;28;20037;-81
2022/06/09 01:59:11;;;;;;;4.78;4.38;;;;;;;15.39;79.39;98116.78;5009710;28;20041;-80
2022/06/09 02:01:41;;;;;;;11.57;6.55;;;;;;;15.45;79.53;98115.59;5013161;28;20026;-80
2022/06/09 02:04:15;;;;;;;7.25;4.45;;;;;;;15.59;78.25;98112.94;5010268;28;20038;-80
2022/06/09 02:06:42;;;;;;;7.50;5.45;;;;;;;15.63;78.37;98116.63;5011189;28;20034;-80
2022/06/09 02:09:08;;;;;;;7.03;4.53;;;;;;;15.50;78.65;98112.03;5010191;28;20366;-80
2022/06/09 02:11:33;;;;;;;5.50;3.97;;;;;;;15.36;78.59;98095.03;5012455;28;20037;-80
2022/06/09 02:14:00;;;;;;;5.93;4.30;;;;;;;15.03;80.35;98097.78;5007500;28;20046;-80
2022/06/09 02:16:26;;;;;;;7.43;4.75;;;;;;;15.18;78.74;98098.63;4987692;28;20493;-79
2022/06/09 02:18:54;;;;;;;6.07;4.60;;;;;;;14.92;80.83;98119.72;5008757;28;20132;-80
2022/06/09 02:21:46;;;;;;;4.53;4.10;;;;;;;15.41;78.43;98114.56;5009026;28;20469;-80
2022/06/09 02:24:11;;;;;;;3.97;3.58;;;;;;;15.53;77.75;98108.75;5004086;28;20401;-79
2022/06/09 02:26:36;;;;;;;6.63;4.32;;;;;;;15.49;78.33;98119.28;4985599;28;20033;-80
2022/06/09 02:29:02;;;;;;;6.18;4.15;;;;;;;15.36;78.45;98120.03;5007994;28;20077;-80
2022/06/09 02:31:27;;;;;;;4.18;3.45;;;;;;;15.19;78.85;98122.50;5007788;28;20061;-80
2022/06/09 02:33:54;;;;;;;4.35;3.88;;;;;;;14.86;80.42;98121.72;5008197;28;20026;-80
2022/06/09 02:36:19;;;;;;;5.30;3.70;;;;;;;15.25;78.93;98132.06;5000871;28;20025;-80
2022/06/09 02:38:45;;;;;;;11.55;4.20;;;;;;;15.14;79.18;98121.78;5025927;28;20500;-80
2022/06/09 02:41:11;;;;;;;4.38;3.58;;;;;;;15.24;78.98;98127.00;5008866;28;20087;-80
2022/06/09 02:43:36;;;;;;;7.30;4.20;;;;;;;15.40;78.27;98129.09;5009306;28;20390;-80
2022/06/09 02:46:03;;;;;;;4.55;3.55;;;;;;;15.43;77.90;98125.03;5004412;28;20084;-80
2022/06/09 02:48:29;;;;;;;5.22;3.60;;;;;;;15.24;78.63;98140.44;5003088;28;20034;-80
2022/06/09 02:50:55;;;;;;;5.90;3.25;;;;;;;15.48;77.35;98115.03;5017819;28;20068;-79
2022/06/09 02:53:22;;;;;;;6.65;3.42;;;;;;;15.38;78.01;98133.19;5010009;28;20080;-80
2022/06/09 02:55:48;;;;;;;3.03;2.75;;;;;;;15.55;77.15;98120.00;5006734;28;20478;-80
2022/06/09 02:58:13;;;;;;;4.40;3.28;;;;;;;15.24;78.14;98121.63;5007843;28;20037;-80
2022/06/09 03:00:39;;;;;;;3.90;3.10;;;;;;;15.37;78.08;98127.03;5003926;28;20080;-80
2022/06/09 03:03:07;;;;;;;3.83;3.22;;;;;;;15.28;77.89;98125.31;5003447;28;20044;-79
2022/06/09 03:05:35;;;;;;;4.80;3.72;;;;;;;15.43;78.16;98133.09;5001792;28;20518;-80
2022/06/09 03:08:01;;;;;;;5.35;3.05;;;;;;;15.59;77.23;98137.13;4974047;28;20040;-79
2022/06/09 03:10:26;;;;;;;3.72;3.40;;;;;;;15.46;77.51;98133.34;5005273;28;20169;-80
2022/06/09 03:12:53;;;;;;;4.55;3.63;;;;;;;15.53;77.06;98128.34;5006778;28;20120;-80
2022/06/09 03:15:21;;;;;;;4.53;3.35;;;;;;;15.45;77.35;98133.63;4985900;28;20026;-80
2022/06/09 03:17:46;;;;;;;7.97;3.17;;;;;;;15.55;76.98;98126.16;5002793;28;20076;-80
2022/06/09 03:20:17;;;;;;;7.03;3.05;;;;;;;15.52;77.20;98121.41;5006825;28;20034;-80
2022/06/09 03:22:43;;;;;;;5.63;3.15;;;;;;;15.18;78.10;98115.50;5008264;28;20029;-80
2022/06/09 03:25:08;;;;;;;4.68;3.38;;;;;;;15.35;78.30;98129.22;5004687;28;20129;-80
2022/06/09 03:27:34;;;;;;;5.03;3.40;;;;;;;15.39;77.49;98124.03;5005655;28;20987;-80
2022/06/09 03:30:01;;;;;;;4.18;2.78;;;;;;;15.20;78.67;98139.44;5006465;28;20464;-80
2022/06/09 03:32:27;;;;;;;7.82;3.30;;;;;;;15.32;78.19;98153.19;5003948;28;20030;-80
2022/06/09 03:34:53;;;;;;;4.10;2.80;;;;;;;15.35;77.56;98156.09;5007204;28;20034;-80
2022/06/09 03:37:19;;;;;;;3.70;3.20;;;;;;;15.02;79.33;98158.00;5004435;28;20083;-80
2022/06/09 03:39:44;;;;;;;3.45;2.60;;;;;;;15.44;77.51;98162.41;5006084;28;20041;-80
2022/06/09 03:42:10;;;;;;;4.35;2.80;;;;;;;15.35;77.69;98158.78;5006681;28;20113;-79
2022/06/09 03:44:35;;;;;;;3.38;2.95;;;;;;;15.33;77.79;98170.94;4985029;28;20385;-80
2022/06/09 03:47:00;;;;;;;4.43;2.65;;;;;;;15.29;78.37;98173.41;5006270;28;20036;-80
2022/06/09 03:49:26;;;;;;;3.53;3.00;;;;;;;15.45;77.32;98176.66;5003890;28;20026;-79
2022/06/09 03:51:51;;;;;;;3.53;3.05;;;;;;;15.46;77.77;98186.34;4977518;28;20049;-79
2022/06/09 03:54:16;;;;;;;3.03;2.65;;;;;;;15.43;77.97;98189.56;5006848;28;20092;-80
2022/06/09 03:56:42;;;;;;;4.65;3.47;;;;;;;15.55;77.00;98174.56;5003485;28;20029;-80
2022/06/09 03:59:10;;;;;;;3.58;2.95;;;;;;;15.63;76.71;98186.56;5005822;28;20107;-79
2022/06/09 04:01:35;;;;;;;5.00;3.28;;;;;;;15.52;77.87;98182.47;5021581;28;20501;-79
2022/06/09 04:04:01;;;;;;;5.18;3.90;;;;;;;15.51;77.32;98186.22;5005681;28;20021;-79
2022/06/09 04:06:26;;;;;;;3.90;2.90;;;;;;;15.54;77.12;98191.03;5005315;28;21301;-80
2022/06/09 04:08:52;;;;;;;4.47;2.90;;;;;;;15.45;77.86;98198.97;4991057;28;20039;-80
2022/06/09 04:11:19;;;;;;;2.90;2.70;;;;;;;15.61;76.95;98199.50;5005286;28;20511;-79
2022/06/09 04:13:45;;;;;;;6.25;3.53;;;;;;;15.38;78.16;98203.09;5005475;28;20033;-79
2022/06/09 04:16:22;;;;;;;3.88;3.47;;;;;;;15.51;77.25;98203.16;4985722;28;20080;-79
2022/06/09 04:18:47;;;;;;;6.07;3.28;;;;;;;15.30;77.73;98193.03;5003513;28;20029;-80
2022/06/09 04:21:13;;;;;;;3.80;3.47;;;;;;;15.58;77.14;98202.78;5005042;28;20386;-79
2022/06/09 04:23:38;;;;;;;4.85;3.63;;;;;;;15.59;77.07;98204.41;5019683;28;20093;-79
2022/06/09 04:26:03;;;;;;;3.20;2.90;;;;;;;15.59;76.96;98196.31;4986511;28;20030;-79
2022/06/09 04:28:29;;;;;;;4.10;3.70;;;;;;;15.65;77.30;98204.00;5007146;28;20030;-79
2022/06/09 04:30:54;;;;;;;4.68;3.58;;;;;;;15.68;76.70;98198.00;5007674;28;20060;-80
2022/06/09 04:33:20;;;;;;;8.85;3.83;;;;;;;15.72;76.63;98198.25;5004681;28;20029;-80
2022/06/09 04:35:45;;;;;;;6.65;4.15;;;;;;;15.76;77.07;98201.91;5008184;28;20033;-79
2022/06/09 04:38:12;;;;;;;4.75;4.20;;;;;;;15.71;76.80;98199.31;5005477;28;20026;-80
2022/06/09 04:40:39;;;;;;;3.95;3.55;;;;;;;15.65;77.04;98189.75;5003162;28;20092;-80
2022/06/09 04:43:07;;;;;;;5.18;3.83;;;;;;;15.68;76.73;98198.00;5004740;28;20037;-80
2022/06/09 04:45:33;;;;;;;4.10;3.70;;;;;;;15.70;77.54;98200.44;4992170;28;20261;-80
2022/06/09 04:47:58;;;;;;;5.50;4.93;;;;;;;15.66;77.94;98216.34;5007727;28;20061;-79
2022/06/09 04:50:24;;;;;;;9.02;7.00;;;;;;;15.17;81.00;98204.53;5021258;28;20382;-79
2022/06/09 04:52:50;;;;;;;6.50;4.35;;;;;;;15.59;78.54;98220.53;5008043;28;20021;-79
2022/06/09 04:55:16;;;;;;;4.90;4.43;;;;;;;15.57;78.54;98223.50;5004187;28;20536;-79
2022/06/09 04:57:41;;;;;;;10.52;4.78;;;;;;;15.80;77.32;98231.72;5003942;28;20038;-79
2022/06/09 05:00:09;;;;;;;10.48;6.78;;;;;;;15.85;77.79;98229.75;5006246;28;20092;-79
2022/06/09 05:02:34;;;;;;;7.00;4.93;;;;;;;15.88;77.00;98222.97;4985205;28;20109;-79
2022/06/09 05:04:59;;;;;;;8.68;4.90;;;;;;;16.00;76.60;98240.22;5001565;28;20121;-78
2022/06/09 05:07:25;;;;;;;12.18;5.75;;;;;;;15.82;77.05;98238.41;4987029;28;20749;-78
2022/06/09 05:09:50;;;;;;;8.07;6.13;;;;;;;15.83;77.27;98237.31;5001535;28;20088;-78
2022/06/09 05:12:16;;;;;;;6.82;5.57;;;;;;;15.90;77.02;98250.38;5003601;28;20021;-78
2022/06/09 05:14:41;;;;;;;18.95;12.65;;;;;;;15.77;77.83;98251.16;5003562;28;20529;-78
2022/06/09 05:17:06;;;;;;;8.48;6.22;;;;;;;15.91;77.08;98254.66;5003664;28;20106;-79
2022/06/09 05:19:32;;;;;;;11.88;7.30;;;;;;;15.95;76.76;98261.84;5007308;28;20117;-78
2022/06/09 05:21:58;;;;;;;14.30;9.30;;;;;;;15.93;77.51;98258.66;5004460;28;20026;-79
2022/06/09 05:24:23;;;;;;;14.07;9.15;;;;;;;16.08;76.65;98258.38;4999180;28;20037;-78
2022/06/09 05:26:48;;;;;;;10.27;9.25;;;;;;;16.05;77.46;98258.19;5003298;28;20113;-79
2022/06/09 05:29:14;;;;;;;10.23;8.00;;;;;;;16.24;76.16;98265.06;5005790;28;20057;-79
2022/06/09 05:31:39;;;;;;;11.75;8.23;;;;;;;16.32;75.83;98260.88;5005875;28;20128;-78
2022/06/09 05:34:04;;;;;;;18.38;9.52;;;;;;;16.35;75.87;98261.09;5001059;28;20527;-78
2022/06/09 05:36:30;;;;;;;12.65;10.07;;;;;;;16.34;75.94;98269.44;4984045;28;20034;-78
2022/06/09 05:47:07;;;;;;;10.30;8.30;;;;;;;16.69;75.29;98282.22;5006065;28;20388;-78
2022/06/09 05:49:32;;;;;;;20.40;11.98;;;;;;;16.47;76.79;98279.41;4993033;28;20034;-78
2022/06/09 05:51:57;;;;;;;14.30;11.38;;;;;;;16.61;75.79;98282.13;4993063;28;20061;-78
2022/06/09 05:54:23;;;;;;;13.07;9.93;;;;;;;16.75;75.35;98291.81;5012493;28;20030;-78
2022/06/09 05:56:49;;;;;;;11.65;9.48;;;;;;;16.71;75.00;98281.94;5012199;28;20061;-78
2022/06/09 05:59:14;;;;;;;25.88;13.93;;;;;;;16.69;77.56;98289.50;4977092;28;20030;-78
2022/06/09 06:01:40;;;;;;;18.77;12.35;;;;;;;16.72;75.87;98294.31;5011396;28;20038;-78
2022/06/09 06:04:08;;;;;;;14.30;11.27;;;;;;;16.78;75.39;98291.19;5011250;28;20026;-78
2022/06/09 06:06:33;;;;;;;18.02;12.70;;;;;;;16.77;76.66;98295.00;5003618;28;20057;-78
2022/06/09 06:09:03;;;;;;;12.45;9.85;;;;;;;16.83;74.97;98293.78;5010565;28;20034;-78
2022/06/09 06:11:28;;;;;;;14.05;10.73;;;;;;;16.50;78.63;98286.94;5009379;28;20060;-78
2022/06/09 06:13:54;;;;;;;14.45;9.85;;;;;;;16.83;75.78;98296.50;4994508;28;20038;-78
2022/06/09 06:16:21;;;;;;;15.98;10.82;;;;;;;16.93;74.79;98290.88;5011350;28;20045;-78
2022/06/09 06:18:46;;;;;;;11.93;10.73;;;;;;;16.94;74.75;98295.19;5023881;28;20041;-78
2022/06/09 06:21:12;;;;;;;11.77;10.57;;;;;;;16.94;74.93;98299.75;5009345;28;20034;-78
2022/06/09 06:23:37;;;;;;;14.88;11.75;;;;;;;16.95;74.87;98309.47;4993502;28;20124;-78
2022/06/09 06:26:03;;;;;;;12.32;10.20;;;;;;;16.87;74.75;98293.97;5010283;28;20500;-78
2022/06/09 06:28:29;;;;;;;12.57;9.00;;;;;;;16.98;75.16;98319.63;5009022;28;20026;-78
2022/06/09 06:30:54;;;;;;;14.07;10.70;;;;;;;16.99;74.74;98313.91;5006455;28;20540;-78
2022/06/09 06:33:20;;;;;;;14.80;9.85;;;;;;;16.75;75.32;98305.31;4994102;28;20125;-78
2022/06/09 06:35:46;;;;;;;10.70;9.65;;;;;;;16.94;74.92;98326.72;5008483;28;20109;-78
2022/06/09 06:38:12;;;;;;;12.20;9.13;;;;;;;17.06;74.70;98335.88;4975400;28;20566;-78
2022/06/09 06:40:37;;;;;;;18.40;10.68;;;;;;;16.92;78.45;98329.72;5009355;28;20466;-78
2022/06/09 06:43:02;;;;;;;15.13;9.50;;;;;;;17.20;75.24;98333.16;4992116;28;20083;-78
2022/06/09 06:45:28;;;;;;;10.90;7.82;;;;;;;17.30;73.38;98327.53;4992747;28;20528;-78
2022/06/09 06:47:56;;;;;;;11.52;7.93;;;;;;;17.20;73.86;98320.47;5002529;28;20374;-78
2022/06/09 06:50:21;;;;;;;11.55;8.85;;;;;;;17.21;74.18;98345.56;4976210;28;20411;-78
2022/06/09 06:52:47;;;;;;;12.23;9.43;;;;;;;17.19;74.18;98350.44;5006833;28;20034;-78
2022/06/09 06:55:15;;;;;;;12.98;8.45;;;;;;;17.20;74.33;98344.75;4988904;28;20125;-78
2022/06/09 06:57:41;;;;;;;13.57;9.35;;;;;;;17.31;73.37;98350.72;5009104;28;20021;-78
2022/06/09 07:00:08;;;;;;;15.50;8.85;;;;;;;17.22;73.17;98339.06;5007778;28;20033;-78
2022/06/09 07:02:34;;;;;;;13.20;8.80;;;;;;;17.32;73.07;98360.38;5007777;28;20418;-78
2022/06/09 07:05:00;;;;;;;11.35;8.32;;;;;;;17.38;73.02;98359.19;5012400;28;20026;-78
2022/06/09 07:07:26;;;;;;;13.80;8.80;;;;;;;17.37;73.16;98357.59;5007906;28;20073;-78
2022/06/09 07:09:52;;;;;;;11.90;9.00;;;;;;;17.45;72.68;98364.94;5008402;28;20124;-78
2022/06/09 07:12:18;;;;;;;11.48;7.78;;;;;;;17.61;72.24;98362.75;5009902;28;20489;-79
2022/06/09 07:14:43;;;;;;;11.20;7.82;;;;;;;17.66;72.25;98370.72;4980668;28;20025;-78
2022/06/09 07:17:08;;;;;;;10.48;8.23;;;;;;;17.59;72.58;98370.34;5002267;28;20038;-78
2022/06/09 07:19:34;;;;;;;19.95;9.20;;;;;;;17.62;73.57;98378.66;5005589;28;20545;-78
2022/06/09 07:22:00;;;;;;;16.30;9.38;;;;;;;17.58;73.96;98361.44;5010429;28;20052;-78
2022/06/09 07:24:25;;;;;;;11.00;9.48;;;;;;;17.77;72.40;98386.38;5006698;28;20034;-78
2022/06/09 07:26:52;;;;;;;10.15;8.73;;;;;;;17.72;71.99;98381.09;5004875;28;20026;-78
2022/06/09 07:29:18;;;;;;;12.75;9.07;;;;;;;17.73;71.83;98377.31;5003784;28;20026;-78
2022/06/09 07:31:44;;;;;;;13.93;8.18;;;;;;;17.83;71.58;98381.66;5006165;28;20056;-78
2022/06/09 07:34:09;;;;;;;9.07;8.18;;;;;;;17.80;71.86;98393.84;4983584;28;20045;-78
2022/06/09 07:36:35;;;;;;;13.02;7.45;;;;;;;17.88;71.15;98389.63;5006840;28;20124;-78
2022/06/09 07:39:00;;;;;;;14.20;8.55;;;;;;;17.74;70.90;98396.97;5005355;28;20034;-78
2022/06/09 07:41:26;;;;;;;12.63;8.45;;;;;;;17.80;71.86;98390.38;5005404;28;20033;-78
2022/06/09 07:43:51;;;;;;;9.75;8.60;;;;;;;17.78;71.36;98400.66;5003814;28;20100;-78
2022/06/09 07:46:18;;;;;;;14.88;7.20;;;;;;;17.64;71.27;98416.94;5006590;28;20117;-78
2022/06/09 07:48:45;;;;;;;9.85;7.60;;;;;;;17.73;70.97;98420.50;5005954;28;20026;-78
2022/06/09 07:51:11;;;;;;;14.43;7.13;;;;;;;17.72;70.77;98418.09;5004209;28;20409;-78
2022/06/09 07:53:37;;;;;;;15.98;7.40;;;;;;;17.66;70.90;98406.63;5002095;28;20405;-78
2022/06/09 07:56:02;;;;;;;10.95;7.72;;;;;;;17.80;70.33;98415.47;5004689;28;20030;-78
2022/06/09 07:58:27;;;;;;;13.88;7.40;;;;;;;17.81;70.53;98422.47;5004571;28;20029;-78
2022/06/09 08:00:53;;;;;;;12.65;8.75;;;;;;;17.74;70.38;98415.88;5003070;28;20358;-78
2022/06/09 08:03:21;;;;;;;9.65;6.57;;;;;;;17.82;70.04;98437.53;5004899;28;20032;-78
2022/06/09 08:05:47;;;;;;;15.45;7.15;;;;;;;17.75;70.76;98428.28;4998884;28;20681;-78
2022/06/09 08:08:13;;;;;;;10.43;7.50;;;;;;;17.90;71.11;98436.03;5004698;28;20022;-78
2022/06/09 08:10:39;;;;;;;8.93;6.63;;;;;;;17.84;70.70;98435.34;5007723;28;20175;-78
2022/06/09 08:13:05;;;;;;;9.65;6.32;;;;;;;17.96;69.65;98441.00;5003572;28;20061;-78
2022/06/09 08:15:32;;;;;;;11.80;7.15;;;;;;;17.88;70.43;98438.25;5004908;28;20065;-78
2022/06/09 08:17:58;;;;;;;8.68;7.63;;;;;;;17.77;70.69;98437.69;4996054;28;20030;-78
2022/06/09 08:20:27;;;;;;;9.45;6.85;;;;;;;17.85;70.30;98444.25;5004129;28;20036;-78
2022/06/09 08:22:58;;;;;;;11.18;6.63;;;;;;;17.87;70.47;98447.44;5009045;28;20026;-78
2022/06/09 08:25:23;;;;;;;8.80;7.82;;;;;;;17.88;70.07;98454.44;5010503;28;20049;-78
2022/06/09 08:27:49;;;;;;;13.85;8.02;;;;;;;17.89;69.64;98443.31;4999451;28;21023;-78
2022/06/09 08:30:16;;;;;;;12.90;7.10;;;;;;;17.96;69.71;98453.69;4990538;28;20129;-77
2022/06/09 08:32:41;;;;;;;14.65;7.00;;;;;;;18.03;69.45;98461.38;5006329;28;20038;-78
2022/06/09 08:35:10;;;;;;;14.38;8.35;;;;;;;17.92;71.05;98469.72;5007142;28;20022;-78
2022/06/09 08:37:36;;;;;;;10.07;7.18;;;;;;;18.09;69.62;98460.16;4989888;28;20075;-78
2022/06/09 08:40:03;;;;;;;9.15;8.20;;;;;;;18.02;71.24;98470.59;4987890;28;20127;-78
2022/06/09 08:42:46;;;;;;;15.32;7.45;;;;;;;18.20;69.39;98475.00;5007260;28;20153;-78
2022/06/09 08:45:23;;;;;;;15.88;7.78;;;;;;;18.15;69.97;98475.16;5023495;28;20068;-78
2022/06/09 08:47:54;;;;;;;10.55;6.95;;;;;;;18.12;69.41;98471.16;5004217;28;20033;-78
2022/06/09 08:50:26;;;;;;;13.63;8.20;;;;;;;18.10;70.67;98480.66;5003097;28;20385;-78
2022/06/09 08:52:54;;;;;;;11.63;6.80;;;;;;;18.18;69.49;98474.53;5004671;28;20021;-78
2022/06/09 08:55:22;;;;;;;12.57;7.78;;;;;;;17.96;71.34;98473.41;4999992;28;20674;-78
2022/06/09 08:57:50;;;;;;;8.00;6.53;;;;;;;18.29;70.09;98481.28;4977750;28;20026;-78
2022/06/09 09:00:19;;;;;;;12.38;7.68;;;;;;;18.36;69.45;98478.97;5008143;28;20034;-78
2022/06/09 09:02:50;;;;;;;13.88;6.75;;;;;;;18.17;69.65;98467.53;5003822;28;20041;-78
2022/06/09 09:05:30;;;;;;;9.25;6.88;;;;;;;18.40;69.63;98479.94;5000860;28;20029;-78
2022/06/09 09:08:00;;;;;;;11.25;7.32;;;;;;;18.23;70.08;98491.44;5002486;28;20407;-78
2022/06/09 09:10:48;;;;;;;13.30;7.75;;;;;;;18.24;69.59;98467.91;5000869;28;20478;-78
2022/06/09 09:13:28;;;;;;;15.32;6.60;;;;;;;18.30;69.32;98483.69;5002766;28;20474;-78
2022/06/09 09:15:58;;;;;;;10.50;7.15;;;;;;;18.16;69.82;98495.66;5001662;28;20639;-78
2022/06/09 09:18:35;;;;;;;15.82;8.43;;;;;;;18.10;69.90;98494.97;5004481;28;20025;-78
2022/06/09 09:21:28;;;;;;;14.75;7.40;;;;;;;17.89;70.40;98481.13;5003886;28;20058;-78
2022/06/09 09:24:11;;;;;;;9.43;7.80;;;;;;;18.05;70.32;98499.69;5006628;28;20048;-78
2022/06/09 09:26:55;;;;;;;13.38;8.63;;;;;;;18.09;69.73;98496.06;5007127;28;20485;-78
2022/06/09 09:29:27;;;;;;;9.93;7.20;;;;;;;18.00;70.04;98486.31;5007928;28;20092;-78
2022/06/09 09:32:01;;;;;;;12.32;8.55;;;;;;;17.98;69.02;98500.91;5010782;28;20030;-78
2022/06/09 09:34:34;;;;;;;13.25;8.23;;;;;;;18.12;68.24;98508.19;5007622;28;20153;-78
2022/06/09 09:37:19;;;;;;;11.93;8.52;;;;;;;18.23;70.39;98501.44;5006399;28;20526;-78
2022/06/09 09:40:17;;;;;;;9.65;7.47;;;;;;;18.43;68.51;98499.06;5007876;28;20060;-78
2022/06/09 09:42:45;;;;;;;11.40;7.72;;;;;;;18.54;68.87;98499.63;4984330;28;20038;-78
2022/06/09 09:45:10;;;;;;;10.35;7.05;;;;;;;18.77;67.63;98501.19;5002904;28;20717;-78
2022/06/09 09:47:58;;;;;;;12.82;8.35;;;;;;;18.71;67.16;98486.22;5009707;28;20033;-78
2022/06/09 09:50:38;;;;;;;8.25;6.70;;;;;;;18.83;67.95;98508.06;5009630;28;20038;-78
2022/06/09 09:53:20;;;;;;;9.93;7.05;;;;;;;18.94;67.53;98508.59;5006430;28;20544;-78
2022/06/09 09:55:56;;;;;;;13.30;7.20;;;;;;;18.98;67.01;98515.75;5008715;28;20562;-78
2022/06/09 09:58:22;;;;;;;;;;;;;;;18.93;67.21;98517.81;5014454;28;20022;-78
2022/06/09 10:01:16;;;;;;;9.40;7.10;;;;;;;19.04;67.03;98519.16;5008259;28;20395;-78
2022/06/09 10:09:40;;;;;;;9.68;6.60;;;;;;;18.93;67.38;98532.16;5004963;28;20044;-78
2022/06/09 10:12:30;;;;;;;12.32;7.53;;;;;;;18.79;68.47;98539.53;5025119;28;20072;-78
2022/06/09 10:15:13;;;;;;;11.52;8.35;;;;;;;18.91;67.15;98547.88;5004459;28;20038;-78
2022/06/09 10:17:52;;;;;;;13.27;9.00;;;;;;;18.87;67.33;98535.28;5022669;28;20034;-78
2022/06/09 10:21:01;;;;;;;17.92;8.88;;;;;;;18.82;67.60;98544.34;5011096;28;20050;-78
2022/06/09 10:23:40;;;;;;;18.17;10.65;;;;;;;18.28;67.54;98539.91;5008635;28;20460;-78
2022/06/09 10:26:20;;;;;;;11.05;7.88;;;;;;;18.68;67.70;98541.69;5024221;28;20092;-78
2022/06/09 10:29:03;;;;;;;17.88;9.88;;;;;;;18.96;66.67;98550.44;5002169;28;20057;-78
2022/06/09 10:31:38;;;;;;;12.55;8.18;;;;;;;19.19;66.63;98554.72;5008736;28;20030;-78
2022/06/09 10:34:10;;;;;;;13.93;8.85;;;;;;;19.05;66.72;98548.59;5008978;28;20022;-78
2022/06/09 10:36:48;;;;;;;11.80;9.32;;;;;;;18.84;66.64;98550.22;5006374;28;20041;-78
2022/06/09 10:39:32;;;;;;;11.68;8.65;;;;;;;19.04;66.71;98573.25;5005182;28;20103;-78
2022/06/09 10:42:05;;;;;;;10.13;8.68;;;;;;;18.99;66.36;98552.53;5004224;28;20030;-78
2022/06/09 10:44:39;;;;;;;16.98;9.68;;;;;;;19.19;66.51;98548.50;5010205;28;20382;-78
2022/06/09 10:56:23;;;;;;;23.90;8.73;;;;;;;19.63;64.26;98548.38;5008463;28;20504;-78
2022/06/09 10:59:15;;;;;;;17.13;8.43;;;;;;;19.87;63.53;98546.06;5007722;28;20105;-78
2022/06/09 11:01:40;;;;;;;14.40;8.80;;;;;;;19.82;62.84;98545.41;5009049;28;20061;-78
2022/06/09 11:04:12;;;;;;;14.93;10.02;;;;;;;20.15;62.95;98552.00;5005496;28;20054;-77
2022/06/09 11:07:10;;;;;;;16.65;10.60;;;;;;;19.95;63.64;98563.44;5000270;28;20461;-78
2022/06/09 11:10:05;;;;;;;26.15;10.85;;;;;;;20.03;63.68;98566.16;5007297;28;20401;-77
2022/06/09 11:13:01;;;;;;;14.60;11.77;;;;;;;19.84;62.27;98564.84;5006400;28;20037;-77
2022/06/09 11:15:41;;;;;;;18.95;11.25;;;;;;;19.86;63.06;98565.31;5000105;28;20033;-77
2022/06/09 11:18:24;;;;;;;15.02;10.50;;;;;;;19.83;63.75;98568.69;5000827;28;20119;-77
2022/06/09 11:21:03;;;;;;;15.98;11.52;;;;;;;19.76;63.92;98565.63;5014130;28;20034;-77
2022/06/09 11:23:33;;;;;;;18.33;11.20;;;;;;;19.61;64.36;98561.44;5004060;28;20036;-77
2022/06/09 11:26:22;;;;;;;13.27;10.95;;;;;;;19.60;64.74;98575.28;5007469;28;20096;-77
2022/06/09 11:29:15;;;;;;;15.00;10.65;;;;;;;19.23;64.61;98566.50;5003519;28;20042;-77
2022/06/09 11:31:40;;;;;;;16.92;11.30;;;;;;;19.31;65.21;98568.44;5006559;28;20103;-77
2022/06/09 11:34:20;;;;;;;18.02;11.35;;;;;;;19.95;64.00;98566.13;5005308;28;20030;-77
2022/06/09 11:36:58;;;;;;;13.98;10.90;;;;;;;20.43;62.71;98557.91;5003708;28;20044;-77
2022/06/09 11:39:30;;;;;;;13.98;9.98;;;;;;;20.62;61.99;98564.59;4999147;28;20060;-77
2022/06/09 11:42:04;;;;;;;13.60;9.27;;;;;;;20.47;62.48;98569.72;5003909;28;20036;-77
2022/06/09 11:44:35;;;;;;;13.27;9.48;;;;;;;20.40;62.28;98569.41;5010915;28;20490;-77
2022/06/09 11:47:05;;;;;;;16.40;10.85;;;;;;;20.10;62.88;98573.81;4967117;28;20034;-77
2022/06/09 11:49:42;;;;;;;14.00;9.55;;;;;;;20.31;61.65;98568.63;5006281;28;20034;-77
2022/06/09 11:52:16;;;;;;;15.80;9.65;;;;;;;20.30;62.25;98569.72;5008449;28;20497;-78
2022/06/09 11:54:49;;;;;;;11.73;8.82;;;;;;;20.31;60.52;98553.16;5024858;28;20515;-77
2022/06/09 11:57:38;;;;;;;14.90;8.88;;;;;;;20.58;59.93;98555.53;4999298;28;20479;-77
2022/06/09 12:00:19;;;;;;;12.98;8.32;;;;;;;20.87;59.88;98563.78;5005528;28;20026;-79
2022/06/09 12:02:56;;;;;;;11.80;7.60;;;;;;;21.26;59.30;98554.59;5018651;28;20034;-78
2022/06/09 12:05:26;;;;;;;7.88;6.03;;;;;;;21.46;58.65;98575.63;5004792;28;20030;-77